sensor_id;sensor_type;location;lat;lon;timestamp;P1;durP1;ratioP1;P2;durP2;ratioP2
77384;SDS011;66443;49.122;8.346;2024-02-15T00:02:07;2.42;;;2.22;;
77384;SDS011;66443;49.122;8.346;2024-02-15T00:04:32;14.80;;;10.43;;
77384;SDS011;66443;49.122;8.346;2024-02-15T00:06:58;3.50;;;3.20;;
77384;SDS011;66443;49.122;8.346;2024-02-15T00:09:23;3.13;;;2.53;;
77384;SDS011;66443;49.122;8.346;2024-02-15T00:11:48;5.28;;;2.90;;
77384;SDS011;66443;49.122;8.346;2024-02-15T00:14:13;4.50;;;3.80;;
77384;SDS011;66443;49.122;8.346;2024-02-15T00:16:39;2.30;;;2.03;;
77384;SDS011;66443;49.122;8.346;2024-02-15T00:19:04;10.63;;;6.63;;
77384;SDS011;66443;49.122;8.346;2024-02-15T00:21:31;10.87;;;7.10;;
77384;SDS011;66443;49.122;8.346;2024-02-15T00:23:56;6.90;;;3.93;;
77384;SDS011;66443;49.122;8.346;2024-02-15T00:26:25;3.13;;;2.53;;
77384;SDS011;66443;49.122;8.346;2024-02-15T00:28:50;3.10;;;2.80;;
77384;SDS011;66443;49.122;8.346;2024-02-15T00:31:15;4.75;;;2.88;;
77384;SDS011;66443;49.122;8.346;2024-02-15T00:33:40;3.20;;;2.70;;
77384;SDS011;66443;49.122;8.346;2024-02-15T00:36:05;3.00;;;2.70;;
77384;SDS011;66443;49.122;8.346;2024-02-15T00:38:34;3.17;;;2.87;;
77384;SDS011;66443;49.122;8.346;2024-02-15T00:40:59;2.57;;;2.37;;
77384;SDS011;66443;49.122;8.346;2024-02-15T00:43:26;3.20;;;2.63;;
77384;SDS011;66443;49.122;8.346;2024-02-15T00:45:51;2.97;;;2.67;;
77384;SDS011;66443;49.122;8.346;2024-02-15T00:48:17;3.93;;;2.60;;
77384;SDS011;66443;49.122;8.346;2024-02-15T00:50:42;3.20;;;2.90;;
77384;SDS011;66443;49.122;8.346;2024-02-15T00:53:07;3.73;;;2.87;;
77384;SDS011;66443;49.122;8.346;2024-02-15T00:55:32;3.53;;;2.70;;
77384;SDS011;66443;49.122;8.346;2024-02-15T00:57:57;4.05;;;2.97;;
77384;SDS011;66443;49.122;8.346;2024-02-15T01:00:22;2.78;;;2.58;;
77384;SDS011;66443;49.122;8.346;2024-02-15T01:02:48;3.43;;;2.80;;
77384;SDS011;66443;49.122;8.346;2024-02-15T01:05:14;3.50;;;2.70;;
77384;SDS011;66443;49.122;8.346;2024-02-15T01:07:40;4.23;;;3.07;;
77384;SDS011;66443;49.122;8.346;2024-02-15T01:10:05;3.93;;;3.13;;
77384;SDS011;66443;49.122;8.346;2024-02-15T01:12:31;6.10;;;3.33;;
77384;SDS011;66443;49.122;8.346;2024-02-15T01:14:56;3.10;;;2.88;;
77384;SDS011;66443;49.122;8.346;2024-02-15T01:17:22;6.17;;;3.23;;
77384;SDS011;66443;49.122;8.346;2024-02-15T01:19:47;3.00;;;2.70;;
77384;SDS011;66443;49.122;8.346;2024-02-15T01:22:13;5.73;;;3.00;;
77384;SDS011;66443;49.122;8.346;2024-02-15T01:24:38;4.17;;;3.23;;
77384;SDS011;66443;49.122;8.346;2024-02-15T01:27:03;4.83;;;3.07;;
77384;SDS011;66443;49.122;8.346;2024-02-15T01:29:28;3.50;;;3.20;;
77384;SDS011;66443;49.122;8.346;2024-02-15T01:31:54;4.67;;;3.00;;
77384;SDS011;66443;49.122;8.346;2024-02-15T01:34:19;6.80;;;3.60;;
77384;SDS011;66443;49.122;8.346;2024-02-15T01:36:47;3.60;;;3.23;;
77384;SDS011;66443;49.122;8.346;2024-02-15T01:39:12;4.47;;;3.20;;
77384;SDS011;66443;49.122;8.346;2024-02-15T01:41:37;4.27;;;3.40;;
77384;SDS011;66443;49.122;8.346;2024-02-15T01:44:03;3.60;;;3.30;;
77384;SDS011;66443;49.122;8.346;2024-02-15T01:46:28;4.13;;;3.33;;
77384;SDS011;66443;49.122;8.346;2024-02-15T01:48:54;7.27;;;3.67;;
77384;SDS011;66443;49.122;8.346;2024-02-15T01:51:21;3.63;;;3.20;;
77384;SDS011;66443;49.122;8.346;2024-02-15T01:53:46;3.20;;;2.90;;
77384;SDS011;66443;49.122;8.346;2024-02-15T01:56:12;3.07;;;2.87;;
77384;SDS011;66443;49.122;8.346;2024-02-15T01:58:39;3.90;;;3.60;;
77384;SDS011;66443;49.122;8.346;2024-02-15T02:01:05;3.37;;;3.17;;
77384;SDS011;66443;49.122;8.346;2024-02-15T02:03:31;4.77;;;3.20;;
77384;SDS011;66443;49.122;8.346;2024-02-15T02:05:56;4.00;;;3.60;;
77384;SDS011;66443;49.122;8.346;2024-02-15T02:08:21;3.77;;;3.30;;
77384;SDS011;66443;49.122;8.346;2024-02-15T02:10:47;4.30;;;3.03;;
77384;SDS011;66443;49.122;8.346;2024-02-15T02:13:12;4.67;;;3.10;;
77384;SDS011;66443;49.122;8.346;2024-02-15T02:15:38;3.70;;;3.20;;
77384;SDS011;66443;49.122;8.346;2024-02-15T02:18:03;3.57;;;3.33;;
77384;SDS011;66443;49.122;8.346;2024-02-15T02:20:33;3.63;;;3.13;;
77384;SDS011;66443;49.122;8.346;2024-02-15T02:25:29;3.43;;;3.13;;
77384;SDS011;66443;49.122;8.346;2024-02-15T02:27:54;3.70;;;2.97;;
77384;SDS011;66443;49.122;8.346;2024-02-15T02:30:21;4.27;;;3.40;;
77384;SDS011;66443;49.122;8.346;2024-02-15T02:32:47;3.70;;;3.40;;
77384;SDS011;66443;49.122;8.346;2024-02-15T02:35:12;3.67;;;2.83;;
77384;SDS011;66443;49.122;8.346;2024-02-15T02:37:38;3.90;;;3.47;;
77384;SDS011;66443;49.122;8.346;2024-02-15T02:40:07;4.10;;;3.00;;
77384;SDS011;66443;49.122;8.346;2024-02-15T02:45:15;3.97;;;3.40;;
77384;SDS011;66443;49.122;8.346;2024-02-15T02:47:40;3.90;;;3.50;;
77384;SDS011;66443;49.122;8.346;2024-02-15T02:50:06;3.43;;;3.13;;
77384;SDS011;66443;49.122;8.346;2024-02-15T02:52:33;5.73;;;3.00;;
77384;SDS011;66443;49.122;8.346;2024-02-15T02:54:58;4.15;;;3.80;;
77384;SDS011;66443;49.122;8.346;2024-02-15T02:57:24;7.43;;;3.73;;
77384;SDS011;66443;49.122;8.346;2024-02-15T02:59:49;3.57;;;3.27;;
77384;SDS011;66443;49.122;8.346;2024-02-15T03:02:14;5.43;;;3.70;;
77384;SDS011;66443;49.122;8.346;2024-02-15T03:04:39;5.13;;;4.70;;
77384;SDS011;66443;49.122;8.346;2024-02-15T03:07:05;4.10;;;3.80;;
77384;SDS011;66443;49.122;8.346;2024-02-15T03:09:30;4.73;;;4.00;;
77384;SDS011;66443;49.122;8.346;2024-02-15T03:11:56;4.97;;;3.10;;
77384;SDS011;66443;49.122;8.346;2024-02-15T03:14:22;4.43;;;3.57;;
77384;SDS011;66443;49.122;8.346;2024-02-15T03:16:47;5.57;;;3.57;;
77384;SDS011;66443;49.122;8.346;2024-02-15T03:19:12;5.40;;;3.40;;
77384;SDS011;66443;49.122;8.346;2024-02-15T03:21:37;6.33;;;3.07;;
77384;SDS011;66443;49.122;8.346;2024-02-15T03:24:02;3.40;;;3.10;;
77384;SDS011;66443;49.122;8.346;2024-02-15T03:26:31;3.90;;;3.10;;
77384;SDS011;66443;49.122;8.346;2024-02-15T03:29:03;3.37;;;3.07;;
77384;SDS011;66443;49.122;8.346;2024-02-15T03:31:29;4.30;;;3.50;;
77384;SDS011;66443;49.122;8.346;2024-02-15T03:33:58;3.40;;;3.10;;
77384;SDS011;66443;49.122;8.346;2024-02-15T03:36:24;7.90;;;3.47;;
77384;SDS011;66443;49.122;8.346;2024-02-15T03:38:49;3.10;;;2.80;;
77384;SDS011;66443;49.122;8.346;2024-02-15T03:41:14;4.60;;;3.30;;
77384;SDS011;66443;49.122;8.346;2024-02-15T03:43:39;3.60;;;3.30;;
77384;SDS011;66443;49.122;8.346;2024-02-15T03:46:04;3.77;;;2.80;;
77384;SDS011;66443;49.122;8.346;2024-02-15T03:48:30;4.63;;;3.00;;
77384;SDS011;66443;49.122;8.346;2024-02-15T03:50:57;3.40;;;3.10;;
77384;SDS011;66443;49.122;8.346;2024-02-15T03:53:23;3.27;;;2.90;;
77384;SDS011;66443;49.122;8.346;2024-02-15T03:55:48;4.17;;;3.17;;
77384;SDS011;66443;49.122;8.346;2024-02-15T03:58:13;10.55;;;4.10;;
77384;SDS011;66443;49.122;8.346;2024-02-15T04:00:39;3.63;;;3.00;;
77384;SDS011;66443;49.122;8.346;2024-02-15T04:03:05;3.87;;;3.47;;
77384;SDS011;66443;49.122;8.346;2024-02-15T04:05:30;4.83;;;3.17;;
77384;SDS011;66443;49.122;8.346;2024-02-15T04:07:55;6.07;;;3.17;;
77384;SDS011;66443;49.122;8.346;2024-02-15T04:10:21;4.03;;;3.33;;
77384;SDS011;66443;49.122;8.346;2024-02-15T04:12:46;3.40;;;3.10;;
77384;SDS011;66443;49.122;8.346;2024-02-15T04:15:11;2.87;;;2.67;;
77384;SDS011;66443;49.122;8.346;2024-02-15T04:17:39;3.50;;;3.20;;
77384;SDS011;66443;49.122;8.346;2024-02-15T04:20:05;4.67;;;2.90;;
77384;SDS011;66443;49.122;8.346;2024-02-15T04:22:31;3.27;;;2.97;;
77384;SDS011;66443;49.122;8.346;2024-02-15T04:25:01;3.30;;;3.00;;
77384;SDS011;66443;49.122;8.346;2024-02-15T04:27:26;4.00;;;3.20;;
77384;SDS011;66443;49.122;8.346;2024-02-15T04:29:51;5.23;;;3.23;;
77384;SDS011;66443;49.122;8.346;2024-02-15T04:32:17;4.47;;;3.37;;
77384;SDS011;66443;49.122;8.346;2024-02-15T04:34:44;3.60;;;3.20;;
77384;SDS011;66443;49.122;8.346;2024-02-15T04:37:11;4.80;;;3.53;;
77384;SDS011;66443;49.122;8.346;2024-02-15T04:39:36;3.90;;;3.47;;
77384;SDS011;66443;49.122;8.346;2024-02-15T04:42:02;3.13;;;2.93;;
77384;SDS011;66443;49.122;8.346;2024-02-15T04:44:28;3.47;;;3.20;;
77384;SDS011;66443;49.122;8.346;2024-02-15T04:46:53;3.00;;;2.70;;
77384;SDS011;66443;49.122;8.346;2024-02-15T04:49:19;3.93;;;3.53;;
77384;SDS011;66443;49.122;8.346;2024-02-15T04:51:44;5.87;;;3.07;;
77384;SDS011;66443;49.122;8.346;2024-02-15T04:54:10;3.70;;;3.10;;
77384;SDS011;66443;49.122;8.346;2024-02-15T04:56:41;3.17;;;2.87;;
77384;SDS011;66443;49.122;8.346;2024-02-15T04:59:06;5.90;;;3.47;;
77384;SDS011;66443;49.122;8.346;2024-02-15T05:01:33;3.33;;;2.70;;
77384;SDS011;66443;49.122;8.346;2024-02-15T05:03:59;4.70;;;3.00;;
77384;SDS011;66443;49.122;8.346;2024-02-15T05:06:24;4.70;;;3.33;;
77384;SDS011;66443;49.122;8.346;2024-02-15T05:08:54;3.67;;;3.00;;
77384;SDS011;66443;49.122;8.346;2024-02-15T05:11:21;4.50;;;4.10;;
77384;SDS011;66443;49.122;8.346;2024-02-15T05:13:47;3.60;;;3.30;;
77384;SDS011;66443;49.122;8.346;2024-02-15T05:16:15;3.47;;;3.20;;
77384;SDS011;66443;49.122;8.346;2024-02-15T05:18:41;3.27;;;2.97;;
77384;SDS011;66443;49.122;8.346;2024-02-15T05:21:06;5.33;;;3.50;;
77384;SDS011;66443;49.122;8.346;2024-02-15T05:23:35;5.23;;;2.97;;
77384;SDS011;66443;49.122;8.346;2024-02-15T05:26:00;3.30;;;3.03;;
77384;SDS011;66443;49.122;8.346;2024-02-15T05:28:25;4.22;;;3.03;;
77384;SDS011;66443;49.122;8.346;2024-02-15T05:33:37;4.30;;;3.23;;
77384;SDS011;66443;49.122;8.346;2024-02-15T05:36:05;5.80;;;3.57;;
77384;SDS011;66443;49.122;8.346;2024-02-15T05:38:30;4.37;;;3.40;;
77384;SDS011;66443;49.122;8.346;2024-02-15T05:40:56;3.77;;;3.10;;
77384;SDS011;66443;49.122;8.346;2024-02-15T05:43:21;4.17;;;3.40;;
77384;SDS011;66443;49.122;8.346;2024-02-15T05:45:46;5.83;;;3.50;;
77384;SDS011;66443;49.122;8.346;2024-02-15T05:48:12;6.47;;;4.20;;
77384;SDS011;66443;49.122;8.346;2024-02-15T05:50:37;6.73;;;3.63;;
77384;SDS011;66443;49.122;8.346;2024-02-15T05:53:02;6.03;;;3.27;;
77384;SDS011;66443;49.122;8.346;2024-02-15T05:55:28;4.40;;;3.77;;
77384;SDS011;66443;49.122;8.346;2024-02-15T05:57:56;7.17;;;6.20;;
77384;SDS011;66443;49.122;8.346;2024-02-15T06:00:21;4.23;;;3.73;;
77384;SDS011;66443;49.122;8.346;2024-02-15T06:02:46;5.10;;;3.93;;
77384;SDS011;66443;49.122;8.346;2024-02-15T06:05:11;4.67;;;3.33;;
77384;SDS011;66443;49.122;8.346;2024-02-15T06:07:37;4.20;;;3.17;;
77384;SDS011;66443;49.122;8.346;2024-02-15T06:10:02;3.23;;;2.93;;
77384;SDS011;66443;49.122;8.346;2024-02-15T06:12:31;7.40;;;3.27;;
77384;SDS011;66443;49.122;8.346;2024-02-15T06:14:57;3.17;;;2.83;;
77384;SDS011;66443;49.122;8.346;2024-02-15T06:17:22;3.22;;;2.92;;
77384;SDS011;66443;49.122;8.346;2024-02-15T06:19:47;3.20;;;2.67;;
77384;SDS011;66443;49.122;8.346;2024-02-15T06:22:12;3.03;;;2.80;;
77384;SDS011;66443;49.122;8.346;2024-02-15T06:24:38;5.87;;;3.33;;
77384;SDS011;66443;49.122;8.346;2024-02-15T06:27:03;7.43;;;3.40;;
77384;SDS011;66443;49.122;8.346;2024-02-15T06:29:28;3.57;;;2.90;;
77384;SDS011;66443;49.122;8.346;2024-02-15T06:32:12;4.90;;;3.30;;
77384;SDS011;66443;49.122;8.346;2024-02-15T06:34:56;4.93;;;3.80;;
77384;SDS011;66443;49.122;8.346;2024-02-15T06:37:40;7.37;;;4.40;;
77384;SDS011;66443;49.122;8.346;2024-02-15T06:40:24;4.23;;;3.13;;
77384;SDS011;66443;49.122;8.346;2024-02-15T06:42:49;6.63;;;2.93;;
77384;SDS011;66443;49.122;8.346;2024-02-15T06:45:15;8.63;;;3.30;;
77384;SDS011;66443;49.122;8.346;2024-02-15T06:47:41;5.73;;;3.03;;
77384;SDS011;66443;49.122;8.346;2024-02-15T06:50:08;3.83;;;3.20;;
77384;SDS011;66443;49.122;8.346;2024-02-15T06:52:34;2.50;;;2.30;;
77384;SDS011;66443;49.122;8.346;2024-02-15T06:54:59;3.70;;;2.73;;
77384;SDS011;66443;49.122;8.346;2024-02-15T06:57:24;3.90;;;2.90;;
77384;SDS011;66443;49.122;8.346;2024-02-15T06:59:50;3.13;;;2.83;;
77384;SDS011;66443;49.122;8.346;2024-02-15T07:02:16;3.30;;;2.50;;
77384;SDS011;66443;49.122;8.346;2024-02-15T07:04:42;4.03;;;3.23;;
77384;SDS011;66443;49.122;8.346;2024-02-15T07:07:09;4.47;;;3.10;;
77384;SDS011;66443;49.122;8.346;2024-02-15T07:09:35;3.20;;;2.90;;
77384;SDS011;66443;49.122;8.346;2024-02-15T07:12:00;3.35;;;3.05;;
77384;SDS011;66443;49.122;8.346;2024-02-15T07:14:25;5.20;;;2.43;;
77384;SDS011;66443;49.122;8.346;2024-02-15T07:16:54;3.13;;;2.83;;
77384;SDS011;66443;49.122;8.346;2024-02-15T07:19:22;3.73;;;3.40;;
77384;SDS011;66443;49.122;8.346;2024-02-15T07:21:47;3.70;;;3.40;;
77384;SDS011;66443;49.122;8.346;2024-02-15T07:24:12;5.37;;;4.00;;
77384;SDS011;66443;49.122;8.346;2024-02-15T07:26:38;4.63;;;3.87;;
77384;SDS011;66443;49.122;8.346;2024-02-15T07:29:03;7.00;;;6.07;;
77384;SDS011;66443;49.122;8.346;2024-02-15T07:31:32;3.90;;;2.87;;
77384;SDS011;66443;49.122;8.346;2024-02-15T07:33:58;6.17;;;3.30;;
77384;SDS011;66443;49.122;8.346;2024-02-15T07:36:24;4.37;;;3.00;;
77384;SDS011;66443;49.122;8.346;2024-02-15T07:38:50;3.53;;;2.80;;
77384;SDS011;66443;49.122;8.346;2024-02-15T07:41:17;5.97;;;4.20;;
77384;SDS011;66443;49.122;8.346;2024-02-15T07:43:43;2.93;;;2.73;;
77384;SDS011;66443;49.122;8.346;2024-02-15T07:46:12;8.07;;;3.20;;
77384;SDS011;66443;49.122;8.346;2024-02-15T07:48:38;6.83;;;3.03;;
77384;SDS011;66443;49.122;8.346;2024-02-15T07:51:04;4.97;;;3.23;;
77384;SDS011;66443;49.122;8.346;2024-02-15T07:53:33;3.60;;;3.30;;
77384;SDS011;66443;49.122;8.346;2024-02-15T07:55:59;4.27;;;3.13;;
77384;SDS011;66443;49.122;8.346;2024-02-15T07:58:25;6.37;;;4.73;;
77384;SDS011;66443;49.122;8.346;2024-02-15T08:00:50;6.17;;;4.17;;
77384;SDS011;66443;49.122;8.346;2024-02-15T08:03:15;3.80;;;3.43;;
77384;SDS011;66443;49.122;8.346;2024-02-15T08:05:40;4.27;;;3.30;;
77384;SDS011;66443;49.122;8.346;2024-02-15T08:08:06;4.23;;;2.97;;
77384;SDS011;66443;49.122;8.346;2024-02-15T08:10:31;6.80;;;4.27;;
77384;SDS011;66443;49.122;8.346;2024-02-15T08:12:59;4.43;;;3.73;;
77384;SDS011;66443;49.122;8.346;2024-02-15T08:15:25;5.83;;;3.70;;
77384;SDS011;66443;49.122;8.346;2024-02-15T08:17:52;5.53;;;3.77;;
77384;SDS011;66443;49.122;8.346;2024-02-15T08:20:20;3.97;;;3.53;;
77384;SDS011;66443;49.122;8.346;2024-02-15T08:22:46;6.73;;;4.70;;
77384;SDS011;66443;49.122;8.346;2024-02-15T08:25:12;6.73;;;5.67;;
77384;SDS011;66443;49.122;8.346;2024-02-15T08:30:08;6.83;;;4.93;;
77384;SDS011;66443;49.122;8.346;2024-02-15T08:32:37;9.90;;;4.50;;
77384;SDS011;66443;49.122;8.346;2024-02-15T08:35:02;4.70;;;3.80;;
77384;SDS011;66443;49.122;8.346;2024-02-15T08:37:29;5.53;;;4.50;;
77384;SDS011;66443;49.122;8.346;2024-02-15T08:39:54;5.30;;;4.80;;
77384;SDS011;66443;49.122;8.346;2024-02-15T08:42:20;5.07;;;4.60;;
77384;SDS011;66443;49.122;8.346;2024-02-15T08:44:47;9.37;;;6.43;;
77384;SDS011;66443;49.122;8.346;2024-02-15T08:47:12;7.70;;;5.13;;
77384;SDS011;66443;49.122;8.346;2024-02-15T08:49:38;7.53;;;5.27;;
77384;SDS011;66443;49.122;8.346;2024-02-15T08:52:05;7.00;;;5.53;;
77384;SDS011;66443;49.122;8.346;2024-02-15T08:54:30;5.87;;;5.30;;
77384;SDS011;66443;49.122;8.346;2024-02-15T08:56:57;9.97;;;6.70;;
77384;SDS011;66443;49.122;8.346;2024-02-15T08:59:22;6.60;;;5.97;;
77384;SDS011;66443;49.122;8.346;2024-02-15T09:01:50;10.30;;;7.07;;
77384;SDS011;66443;49.122;8.346;2024-02-15T09:04:15;8.57;;;7.53;;
77384;SDS011;66443;49.122;8.346;2024-02-15T09:06:40;8.53;;;7.67;;
77384;SDS011;66443;49.122;8.346;2024-02-15T09:09:06;10.47;;;6.73;;
77384;SDS011;66443;49.122;8.346;2024-02-15T09:11:31;6.55;;;5.95;;
77384;SDS011;66443;49.122;8.346;2024-02-15T09:13:56;6.33;;;5.50;;
77384;SDS011;66443;49.122;8.346;2024-02-15T09:16:21;8.83;;;5.63;;
77384;SDS011;66443;49.122;8.346;2024-02-15T09:18:46;6.17;;;4.87;;
77384;SDS011;66443;49.122;8.346;2024-02-15T09:21:12;6.33;;;5.17;;
77384;SDS011;66443;49.122;8.346;2024-02-15T09:23:37;6.83;;;5.33;;
77384;SDS011;66443;49.122;8.346;2024-02-15T09:26:03;4.73;;;4.33;;
77384;SDS011;66443;49.122;8.346;2024-02-15T09:28:29;6.90;;;5.13;;
77384;SDS011;66443;49.122;8.346;2024-02-15T09:30:54;4.20;;;3.80;;
77384;SDS011;66443;49.122;8.346;2024-02-15T09:33:24;5.83;;;3.67;;
77384;SDS011;66443;49.122;8.346;2024-02-15T09:35:49;3.40;;;2.93;;
77384;SDS011;66443;49.122;8.346;2024-02-15T09:38:14;4.33;;;3.23;;
77384;SDS011;66443;49.122;8.346;2024-02-15T09:40:41;3.03;;;2.80;;
77384;SDS011;66443;49.122;8.346;2024-02-15T09:43:08;3.37;;;3.07;;
77384;SDS011;66443;49.122;8.346;2024-02-15T09:45:33;4.73;;;3.60;;
77384;SDS011;66443;49.122;8.346;2024-02-15T09:48:00;3.50;;;3.20;;
77384;SDS011;66443;49.122;8.346;2024-02-15T09:50:29;3.47;;;3.17;;
77384;SDS011;66443;49.122;8.346;2024-02-15T09:52:56;6.00;;;3.67;;
77384;SDS011;66443;49.122;8.346;2024-02-15T09:55:22;3.17;;;2.80;;
77384;SDS011;66443;49.122;8.346;2024-02-15T09:57:48;3.47;;;3.10;;
77384;SDS011;66443;49.122;8.346;2024-02-15T10:00:14;2.87;;;2.67;;
77384;SDS011;66443;49.122;8.346;2024-02-15T10:02:40;3.80;;;2.47;;
77384;SDS011;66443;49.122;8.346;2024-02-15T10:05:06;2.47;;;2.10;;
77384;SDS011;66443;49.122;8.346;2024-02-15T10:07:36;3.93;;;2.37;;
77384;SDS011;66443;49.122;8.346;2024-02-15T10:10:14;3.67;;;2.90;;
77384;SDS011;66443;49.122;8.346;2024-02-15T10:12:41;3.43;;;3.13;;
77384;SDS011;66443;49.122;8.346;2024-02-15T10:15:08;3.40;;;3.00;;
77384;SDS011;66443;49.122;8.346;2024-02-15T10:17:34;3.33;;;2.33;;
77384;SDS011;66443;49.122;8.346;2024-02-15T10:20:04;3.97;;;2.60;;
77384;SDS011;66443;49.122;8.346;2024-02-15T10:22:30;2.97;;;2.30;;
77384;SDS011;66443;49.122;8.346;2024-02-15T10:25:11;3.27;;;2.80;;
77384;SDS011;66443;49.122;8.346;2024-02-15T10:27:37;3.13;;;2.50;;
77384;SDS011;66443;49.122;8.346;2024-02-15T10:30:19;6.87;;;5.93;;
77384;SDS011;66443;49.122;8.346;2024-02-15T10:32:45;4.83;;;2.43;;
77384;SDS011;66443;49.122;8.346;2024-02-15T10:35:10;2.93;;;2.27;;
77384;SDS011;66443;49.122;8.346;2024-02-15T10:37:43;3.13;;;2.37;;
77384;SDS011;66443;49.122;8.346;2024-02-15T10:40:08;2.90;;;2.07;;
77384;SDS011;66443;49.122;8.346;2024-02-15T10:42:34;3.53;;;1.50;;
77384;SDS011;66443;49.122;8.346;2024-02-15T10:45:01;3.00;;;1.93;;
77384;SDS011;66443;49.122;8.346;2024-02-15T10:47:29;2.07;;;1.87;;
77384;SDS011;66443;49.122;8.346;2024-02-15T10:49:55;2.40;;;2.20;;
77384;SDS011;66443;49.122;8.346;2024-02-15T10:52:20;3.10;;;1.80;;
77384;SDS011;66443;49.122;8.346;2024-02-15T10:54:56;3.37;;;1.70;;
77384;SDS011;66443;49.122;8.346;2024-02-15T10:57:26;3.97;;;1.77;;
77384;SDS011;66443;49.122;8.346;2024-02-15T10:59:57;2.00;;;1.83;;
77384;SDS011;66443;49.122;8.346;2024-02-15T11:04:52;2.80;;;1.87;;
77384;SDS011;66443;49.122;8.346;2024-02-15T11:07:25;2.43;;;1.87;;
77384;SDS011;66443;49.122;8.346;2024-02-15T11:09:53;4.13;;;1.90;;
77384;SDS011;66443;49.122;8.346;2024-02-15T11:12:18;2.27;;;1.97;;
77384;SDS011;66443;49.122;8.346;2024-02-15T11:14:44;3.83;;;1.83;;
77384;SDS011;66443;49.122;8.346;2024-02-15T11:17:10;5.23;;;1.63;;
77384;SDS011;66443;49.122;8.346;2024-02-15T11:22:07;1.73;;;1.50;;
77384;SDS011;66443;49.122;8.346;2024-02-15T11:24:34;1.80;;;1.40;;
77384;SDS011;66443;49.122;8.346;2024-02-15T11:27:03;2.30;;;2.03;;
77384;SDS011;66443;49.122;8.346;2024-02-15T11:35:08;3.53;;;1.63;;
77384;SDS011;66443;49.122;8.346;2024-02-15T11:40:17;2.73;;;1.90;;
77384;SDS011;66443;49.122;8.346;2024-02-15T11:42:46;1.87;;;1.70;;
77384;SDS011;66443;49.122;8.346;2024-02-15T11:45:12;2.77;;;1.40;;
77384;SDS011;66443;49.122;8.346;2024-02-15T11:47:41;3.80;;;1.70;;
77384;SDS011;66443;49.122;8.346;2024-02-15T11:50:10;3.60;;;1.23;;
77384;SDS011;66443;49.122;8.346;2024-02-15T11:52:37;2.20;;;1.53;;
77384;SDS011;66443;49.122;8.346;2024-02-15T11:55:06;2.87;;;1.50;;
77384;SDS011;66443;49.122;8.346;2024-02-15T11:57:35;3.77;;;1.43;;
77384;SDS011;66443;49.122;8.346;2024-02-15T12:00:33;1.80;;;1.43;;
77384;SDS011;66443;49.122;8.346;2024-02-15T12:03:17;1.70;;;1.50;;
77384;SDS011;66443;49.122;8.346;2024-02-15T12:06:01;2.43;;;1.43;;
77384;SDS011;66443;49.122;8.346;2024-02-15T12:08:45;5.00;;;1.47;;
77384;SDS011;66443;49.122;8.346;2024-02-15T12:11:29;1.67;;;1.50;;
77384;SDS011;66443;49.122;8.346;2024-02-15T12:14:14;2.50;;;1.47;;
77384;SDS011;66443;49.122;8.346;2024-02-15T12:17:02;2.33;;;1.50;;
77384;SDS011;66443;49.122;8.346;2024-02-15T12:19:47;3.30;;;1.50;;
77384;SDS011;66443;49.122;8.346;2024-02-15T12:22:14;1.97;;;1.20;;
77384;SDS011;66443;49.122;8.346;2024-02-15T12:24:39;5.43;;;1.50;;
77384;SDS011;66443;49.122;8.346;2024-02-15T12:27:05;2.93;;;1.27;;
77384;SDS011;66443;49.122;8.346;2024-02-15T12:29:30;2.27;;;2.07;;
77384;SDS011;66443;49.122;8.346;2024-02-15T12:31:56;2.90;;;2.47;;
77384;SDS011;66443;49.122;8.346;2024-02-15T12:34:21;4.23;;;1.50;;
77384;SDS011;66443;49.122;8.346;2024-02-15T12:36:46;3.93;;;2.10;;
77384;SDS011;66443;49.122;8.346;2024-02-15T12:39:14;3.17;;;2.97;;
77384;SDS011;66443;49.122;8.346;2024-02-15T12:41:48;3.00;;;1.50;;
77384;SDS011;66443;49.122;8.346;2024-02-15T12:44:17;2.80;;;1.37;;
77384;SDS011;66443;49.122;8.346;2024-02-15T12:46:42;4.30;;;1.60;;
77384;SDS011;66443;49.122;8.346;2024-02-15T12:49:27;2.27;;;1.50;;
77384;SDS011;66443;49.122;8.346;2024-02-15T12:51:53;3.07;;;1.20;;
77384;SDS011;66443;49.122;8.346;2024-02-15T12:54:21;3.33;;;1.40;;
77384;SDS011;66443;49.122;8.346;2024-02-15T12:56:47;4.43;;;1.73;;
77384;SDS011;66443;49.122;8.346;2024-02-15T12:59:18;4.20;;;1.30;;
77384;SDS011;66443;49.122;8.346;2024-02-15T13:01:46;2.03;;;1.50;;
77384;SDS011;66443;49.122;8.346;2024-02-15T13:04:21;3.10;;;2.27;;
77384;SDS011;66443;49.122;8.346;2024-02-15T13:06:46;1.97;;;1.67;;
77384;SDS011;66443;49.122;8.346;2024-02-15T13:09:12;2.65;;;1.30;;
77384;SDS011;66443;49.122;8.346;2024-02-15T13:11:38;2.70;;;1.20;;
77384;SDS011;66443;49.122;8.346;2024-02-15T13:14:03;2.40;;;1.40;;
77384;SDS011;66443;49.122;8.346;2024-02-15T13:16:29;1.67;;;1.10;;
77384;SDS011;66443;49.122;8.346;2024-02-15T13:18:56;2.13;;;1.20;;
77384;SDS011;66443;49.122;8.346;2024-02-15T13:21:22;1.70;;;1.57;;
77384;SDS011;66443;49.122;8.346;2024-02-15T13:23:49;3.40;;;1.67;;
77384;SDS011;66443;49.122;8.346;2024-02-15T13:26:14;3.13;;;1.40;;
77384;SDS011;66443;49.122;8.346;2024-02-15T13:28:39;3.30;;;2.27;;
77384;SDS011;66443;49.122;8.346;2024-02-15T13:31:05;2.73;;;2.00;;
77384;SDS011;66443;49.122;8.346;2024-02-15T13:33:31;3.77;;;2.07;;
77384;SDS011;66443;49.122;8.346;2024-02-15T13:35:58;3.30;;;1.60;;
77384;SDS011;66443;49.122;8.346;2024-02-15T13:38:23;3.57;;;1.70;;
77384;SDS011;66443;49.122;8.346;2024-02-15T13:40:48;2.20;;;2.00;;
77384;SDS011;66443;49.122;8.346;2024-02-15T13:43:17;3.10;;;2.50;;
77384;SDS011;66443;49.122;8.346;2024-02-15T13:45:42;2.93;;;1.77;;
77384;SDS011;66443;49.122;8.346;2024-02-15T13:48:09;3.77;;;1.80;;
77384;SDS011;66443;49.122;8.346;2024-02-15T13:50:35;4.77;;;2.37;;
77384;SDS011;66443;49.122;8.346;2024-02-15T13:53:01;3.83;;;2.30;;
77384;SDS011;66443;49.122;8.346;2024-02-15T13:55:29;4.27;;;1.13;;
77384;SDS011;66443;49.122;8.346;2024-02-15T13:57:54;3.90;;;1.30;;
77384;SDS011;66443;49.122;8.346;2024-02-15T14:00:22;1.40;;;1.30;;
77384;SDS011;66443;49.122;8.346;2024-02-15T14:02:52;2.47;;;1.47;;
77384;SDS011;66443;49.122;8.346;2024-02-15T14:05:18;1.87;;;1.50;;
77384;SDS011;66443;49.122;8.346;2024-02-15T14:07:48;4.67;;;1.57;;
77384;SDS011;66443;49.122;8.346;2024-02-15T14:10:14;2.03;;;1.60;;
77384;SDS011;66443;49.122;8.346;2024-02-15T14:12:40;3.60;;;1.83;;
77384;SDS011;66443;49.122;8.346;2024-02-15T14:15:05;2.83;;;1.73;;
77384;SDS011;66443;49.122;8.346;2024-02-15T14:17:31;2.73;;;1.80;;
77384;SDS011;66443;49.122;8.346;2024-02-15T14:19:56;3.23;;;1.53;;
77384;SDS011;66443;49.122;8.346;2024-02-15T14:22:22;3.17;;;1.57;;
77384;SDS011;66443;49.122;8.346;2024-02-15T14:24:48;2.20;;;1.60;;
77384;SDS011;66443;49.122;8.346;2024-02-15T14:27:14;4.37;;;1.50;;
77384;SDS011;66443;49.122;8.346;2024-02-15T14:29:39;2.00;;;1.37;;
77384;SDS011;66443;49.122;8.346;2024-02-15T14:32:24;1.47;;;1.23;;
77384;SDS011;66443;49.122;8.346;2024-02-15T14:35:08;1.67;;;1.10;;
77384;SDS011;66443;49.122;8.346;2024-02-15T14:37:34;1.37;;;1.10;;
77384;SDS011;66443;49.122;8.346;2024-02-15T14:39:59;3.77;;;1.23;;
77384;SDS011;66443;49.122;8.346;2024-02-15T14:42:24;7.67;;;1.27;;
77384;SDS011;66443;49.122;8.346;2024-02-15T14:44:49;2.13;;;1.30;;
77384;SDS011;66443;49.122;8.346;2024-02-15T14:47:15;2.77;;;1.20;;
77384;SDS011;66443;49.122;8.346;2024-02-15T14:49:40;3.10;;;1.30;;
77384;SDS011;66443;49.122;8.346;2024-02-15T14:52:05;3.37;;;1.40;;
77384;SDS011;66443;49.122;8.346;2024-02-15T14:54:30;1.30;;;1.17;;
77384;SDS011;66443;49.122;8.346;2024-02-15T14:56:56;3.40;;;1.40;;
77384;SDS011;66443;49.122;8.346;2024-02-15T14:59:22;1.60;;;1.10;;
77384;SDS011;66443;49.122;8.346;2024-02-15T15:01:47;1.43;;;1.20;;
77384;SDS011;66443;49.122;8.346;2024-02-15T15:04:13;2.20;;;1.30;;
77384;SDS011;66443;49.122;8.346;2024-02-15T15:06:38;1.43;;;1.13;;
77384;SDS011;66443;49.122;8.346;2024-02-15T15:09:22;0.90;;;0.90;;
77384;SDS011;66443;49.122;8.346;2024-02-15T15:12:06;1.30;;;0.93;;